Time;durP1;ratioP1;P1;durP2;ratioP2;P2;SDS_P1;SDS_P2;PMS_P1;PMS_P2;Temp;Humidity;BMP_temperature;BMP_pressure;BME280_temperature;BME280_humidity;BME280_pressure;Samples;Min_cycle;Max_cycle;Signal;HPM_P1;HPM_P2
2022/01/14 00:02:18;;;;;;;28.52;14.30;;;0.30;99.90;;;;;;5113676;28;20050;-93
2022/01/14 00:04:44;;;;;;;36.17;16.10;;;0.30;99.90;;;;;;5113398;28;20052;-91
2022/01/14 00:07:10;;;;;;;31.92;15.18;;;0.30;99.90;;;;;;5114383;28;20020;-92
2022/01/14 00:09:37;;;;;;;28.08;13.95;;;0.30;99.90;;;;;;5117247;28;20023;-92
2022/01/14 00:12:10;;;;;;;31.60;14.90;;;0.40;99.90;;;;;;5117901;28;20038;-91
2022/01/14 00:14:42;;;;;;;33.35;15.05;;;0.40;99.90;;;;;;5117848;28;20020;-96
2022/01/14 00:17:10;;;;;;;29.80;15.13;;;0.40;99.90;;;;;;5118387;28;20034;-95
2022/01/14 00:19:36;;;;;;;29.85;14.32;;;0.50;99.90;;;;;;5117813;28;20023;-91
2022/01/14 00:22:08;;;;;;;29.02;14.38;;;0.50;99.90;;;;;;5118520;28;20126;-96
2022/01/14 00:33:00;;;;;;;25.05;12.45;;;0.60;99.90;;;;;;5119388;28;20066;-93
2022/01/14 00:35:26;;;;;;;22.92;11.93;;;0.60;99.90;;;;;;5119322;27;20031;-93
2022/01/14 00:37:52;;;;;;;23.65;13.27;;;0.70;99.90;;;;;;5117531;28;20087;-92
2022/01/14 00:40:18;;;;;;;23.98;12.18;;;0.70;99.90;;;;;;5117206;28;20028;-95
2022/01/14 00:42:45;;;;;;;21.98;12.48;;;0.70;99.90;;;;;;5118057;28;20027;-92
2022/01/14 00:45:11;;;;;;;22.83;12.13;;;0.70;99.90;;;;;;5117552;28;20023;-92
2022/01/14 00:47:37;;;;;;;20.13;11.38;;;0.70;99.90;;;;;;5117145;28;20424;-96
2022/01/14 00:50:12;;;;;;;19.80;10.40;;;0.80;99.90;;;;;;5119183;28;20031;-94
2022/01/14 00:52:40;;;;;;;19.88;11.18;;;0.80;99.90;;;;;;5116952;28;20120;-92
2022/01/14 00:55:08;;;;;;;21.58;11.13;;;0.80;99.90;;;;;;5117046;28;20024;-94
2022/01/14 01:00:22;;;;;;;19.40;10.65;;;0.80;99.90;;;;;;5118746;28;20069;-93
2022/01/14 01:02:47;;;;;;;17.75;10.55;;;0.90;99.90;;;;;;5117562;28;20114;-92
2022/01/14 01:05:14;;;;;;;20.60;10.77;;;0.80;99.90;;;;;;5116764;28;20479;-93
2022/01/14 01:07:42;;;;;;;19.65;11.10;;;0.90;99.90;;;;;;5117107;28;20062;-93
2022/01/14 01:10:10;;;;;;;18.98;10.85;;;0.90;99.90;;;;;;5117079;28;20062;-93
2022/01/14 01:12:47;;;;;;;17.25;10.10;;;0.90;99.90;;;;;;5117635;27;20442;-93
2022/01/14 01:15:15;;;;;;;19.52;10.52;;;0.90;99.90;;;;;;5116536;28;20461;-93
2022/01/14 01:17:41;;;;;;;18.80;10.60;;;0.90;99.90;;;;;;5116711;28;20027;-94
2022/01/14 01:20:15;;;;;;;15.63;9.60;;;0.90;99.90;;;;;;5118038;28;20027;-93
2022/01/14 01:22:41;;;;;;;19.08;10.20;;;0.90;99.90;;;;;;5117294;28;20351;-93
2022/01/14 01:25:10;;;;;;;16.88;10.55;;;0.90;99.90;;;;;;5116370;28;20034;-94
2022/01/14 01:27:41;;;;;;;17.73;10.25;;;1.00;99.90;;;;;;5117292;28;20027;-91
2022/01/14 01:30:27;;;;;;;17.27;9.95;;;1.00;99.90;;;;;;5116743;28;20019;-93
2022/01/14 01:32:54;;;;;;;18.45;10.20;;;1.00;99.90;;;;;;5116903;28;20020;-92
2022/01/14 01:35:20;;;;;;;17.73;10.25;;;1.00;99.90;;;;;;5116922;28;20020;-93
2022/01/14 01:37:46;;;;;;;16.55;9.13;;;1.00;99.90;;;;;;5116742;28;20469;-93
2022/01/14 01:40:14;;;;;;;15.40;9.45;;;1.00;99.90;;;;;;5117109;28;20028;-93
2022/01/14 01:42:44;;;;;;;14.93;9.02;;;1.00;99.90;;;;;;5116502;28;20114;-94
2022/01/14 01:45:12;;;;;;;13.35;8.50;;;1.10;99.90;;;;;;5118754;28;20110;-94
2022/01/14 01:47:39;;;;;;;17.92;9.77;;;1.10;99.90;;;;;;5115659;28;20097;-96
2022/01/14 01:50:10;;;;;;;19.17;10.30;;;1.10;99.90;;;;;;5116242;28;20058;-94
2022/01/14 01:52:36;;;;;;;15.60;9.63;;;1.10;99.90;;;;;;5115794;28;20016;-93
2022/01/14 01:55:03;;;;;;;18.05;9.55;;;1.10;99.90;;;;;;5116733;28;20220;-94
2022/01/14 01:57:29;;;;;;;14.90;8.60;;;1.10;99.90;;;;;;5099789;28;20092;-94
2022/01/14 01:59:55;;;;;;;16.33;8.88;;;1.10;99.90;;;;;;5116747;28;20036;-93
2022/01/14 02:02:20;;;;;;;16.23;9.00;;;1.10;99.90;;;;;;5116832;28;20020;-93
2022/01/14 02:04:46;;;;;;;17.38;9.90;;;1.20;99.90;;;;;;5116303;28;20027;-92
2022/01/14 02:07:12;;;;;;;13.32;8.80;;;1.20;99.90;;;;;;5095024;28;20034;-93
2022/01/14 02:09:38;;;;;;;13.27;8.55;;;1.20;99.90;;;;;;5096317;28;20107;-92
2022/01/14 02:12:09;;;;;;;16.88;9.35;;;1.20;99.90;;;;;;5095146;28;20016;-93
2022/01/14 02:22:51;;;;;;;12.85;8.00;;;1.20;99.90;;;;;;5117446;28;20046;-94
2022/01/14 02:25:32;;;;;;;13.68;8.65;;;1.20;99.90;;;;;;5116188;28;20118;-91
2022/01/14 02:28:08;;;;;;;;;;;1.20;99.90;;;;;;5368875;22;20045;-93
2022/01/14 02:30:36;;;;;;;14.15;8.40;;;1.20;99.90;;;;;;5074489;28;19912;-93
2022/01/14 02:33:02;;;;;;;12.90;8.50;;;1.20;99.90;;;;;;5075060;28;20095;-95
2022/01/14 02:35:29;;;;;;;15.50;9.18;;;1.30;99.90;;;;;;5074077;28;20028;-94
2022/01/14 02:37:55;;;;;;;14.38;8.95;;;1.20;99.90;;;;;;5075182;28;20028;-95
2022/01/14 02:40:22;;;;;;;14.07;9.30;;;1.30;99.90;;;;;;5074743;28;20017;-94
2022/01/14 02:42:48;;;;;;;14.55;8.98;;;1.30;99.90;;;;;;5074902;28;20020;-94
2022/01/14 02:45:16;;;;;;;13.63;7.82;;;1.30;99.90;;;;;;5074374;28;20119;-94
2022/01/14 02:47:42;;;;;;;16.95;9.55;;;1.30;99.90;;;;;;5074130;28;20021;-94
2022/01/14 02:50:14;;;;;;;13.23;8.68;;;1.30;99.90;;;;;;5074838;28;20028;-95
2022/01/14 02:52:53;;;;;;;14.43;8.75;;;1.30;99.90;;;;;;5074018;28;20030;-94
2022/01/14 02:55:29;;;;;;;11.80;7.57;;;1.30;99.90;;;;;;5075052;28;20463;-92
2022/01/14 02:57:57;;;;;;;11.68;7.93;;;1.20;99.90;;;;;;5074012;28;20521;-94
2022/01/14 03:00:29;;;;;;;11.10;7.53;;;1.30;99.90;;;;;;5073750;28;20059;-95
2022/01/14 03:02:58;;;;;;;13.85;8.48;;;1.30;99.90;;;;;;5075263;28;20040;-94
2022/01/14 03:05:28;;;;;;;11.57;7.65;;;1.30;99.90;;;;;;5073688;28;20086;-94
2022/01/14 03:07:54;;;;;;;12.88;8.00;;;1.30;99.90;;;;;;5074566;28;20062;-96
2022/01/14 03:10:22;;;;;;;12.40;7.57;;;1.30;99.90;;;;;;5073678;28;20028;-94
2022/01/14 03:12:48;;;;;;;10.55;6.97;;;1.30;99.90;;;;;;5074668;28;20021;-94
2022/01/14 03:15:15;;;;;;;11.02;7.32;;;1.30;99.90;;;;;;5073310;28;20023;-93
2022/01/14 03:17:42;;;;;;;10.30;7.15;;;1.40;99.90;;;;;;5054485;28;20119;-92
2022/01/14 03:20:11;;;;;;;11.75;6.93;;;1.40;99.90;;;;;;5054532;28;20021;-91
2022/01/14 03:22:41;;;;;;;9.27;6.22;;;1.40;99.90;;;;;;5054416;28;20040;-92
2022/01/14 03:27:53;;;;;;;10.30;6.38;;;1.30;99.90;;;;;;5054833;28;20064;-93
2022/01/14 03:30:19;;;;;;;9.10;5.85;;;1.40;99.90;;;;;;5054304;28;20395;-94
2022/01/14 03:32:45;;;;;;;9.30;6.20;;;1.40;99.90;;;;;;5055219;28;20021;-92
2022/01/14 03:35:12;;;;;;;8.45;5.82;;;1.40;99.90;;;;;;5053535;28;20025;-92
2022/01/14 03:37:39;;;;;;;9.50;6.07;;;1.40;99.90;;;;;;5053337;28;20021;-92
2022/01/14 03:40:06;;;;;;;9.98;6.13;;;1.40;99.90;;;;;;5072527;28;20554;-93
2022/01/14 03:42:32;;;;;;;9.75;5.85;;;1.40;99.90;;;;;;5073114;28;20028;-93
2022/01/14 03:45:01;;;;;;;8.48;5.25;;;1.40;99.90;;;;;;5073394;28;20024;-94
2022/01/14 03:47:27;;;;;;;10.82;6.13;;;1.40;99.90;;;;;;5056588;28;20029;-92
2022/01/14 03:49:53;;;;;;;9.30;5.72;;;1.40;99.90;;;;;;5073326;28;20024;-93
2022/01/14 03:52:18;;;;;;;7.68;5.30;;;1.40;99.90;;;;;;5073330;28;20021;-93
2022/01/14 03:54:45;;;;;;;9.52;6.03;;;1.40;99.90;;;;;;5073395;28;20463;-93
2022/01/14 03:57:10;;;;;;;9.27;5.53;;;1.40;99.90;;;;;;5073159;28;20104;-92
2022/01/14 03:59:36;;;;;;;11.60;5.53;;;1.40;99.90;;;;;;5073513;28;20033;-92
2022/01/14 04:02:02;;;;;;;8.30;5.72;;;1.40;99.90;;;;;;5072867;28;20174;-93
2022/01/14 04:04:28;;;;;;;8.88;5.28;;;1.40;99.90;;;;;;5072885;28;20067;-93
2022/01/14 04:06:54;;;;;;;9.70;5.85;;;1.40;99.90;;;;;;5072912;28;20082;-92
2022/01/14 04:09:19;;;;;;;9.15;5.80;;;1.40;99.90;;;;;;5073473;28;20025;-93
2022/01/14 04:11:45;;;;;;;10.93;5.85;;;1.40;99.90;;;;;;5073109;28;20154;-92
2022/01/14 04:16:49;;;;;;;11.63;6.20;;;1.40;99.90;;;;;;5074524;28;20028;-93
2022/01/14 04:19:15;;;;;;;10.90;6.15;;;1.40;99.90;;;;;;5073302;28;20025;-94
2022/01/14 04:21:44;;;;;;;8.52;5.43;;;1.40;99.90;;;;;;5059319;28;20487;-96
2022/01/14 04:24:10;;;;;;;8.52;5.60;;;1.50;99.90;;;;;;5053199;28;20021;-91
2022/01/14 04:26:35;;;;;;;9.80;6.32;;;1.40;99.90;;;;;;5053284;28;20426;-90
2022/01/14 04:29:01;;;;;;;11.05;6.82;;;1.40;99.90;;;;;;5052748;28;20049;-91
2022/01/14 04:31:27;;;;;;;10.75;6.20;;;1.50;99.90;;;;;;5053050;28;20032;-92
2022/01/14 04:33:53;;;;;;;10.65;6.18;;;1.50;99.90;;;;;;5053561;28;20466;-93
2022/01/14 04:36:18;;;;;;;12.00;6.30;;;1.40;99.90;;;;;;5052707;28;20025;-92
2022/01/14 04:38:45;;;;;;;11.68;6.32;;;1.50;99.90;;;;;;5053008;28;20060;-95
2022/01/14 04:41:10;;;;;;;9.82;6.05;;;1.50;99.90;;;;;;5058185;28;20480;-94
2022/01/14 04:43:36;;;;;;;7.82;5.18;;;1.50;99.90;;;;;;5074189;28;20028;-93
2022/01/14 04:46:35;;;;;;;15.18;7.03;;;1.50;99.90;;;;;;5073696;28;20115;-94
2022/01/14 04:48:48;;;;;;;13.15;6.53;;;1.50;99.90;;;;;;5073776;28;20467;-94
2022/01/14 04:51:14;;;;;;;13.90;7.47;;;1.50;99.90;;;;;;5072564;28;20031;-94
2022/01/14 04:53:40;;;;;;;12.05;6.75;;;1.50;99.90;;;;;;5073538;28;20031;-94
2022/01/14 04:56:06;;;;;;;17.55;8.57;;;1.60;99.90;;;;;;5076586;28;20070;-93
2022/01/14 04:58:32;;;;;;;13.20;6.95;;;1.60;99.90;;;;;;5077309;28;20016;-94
2022/01/14 05:00:58;;;;;;;13.90;7.20;;;1.60;99.90;;;;;;5077707;28;20074;-94
2022/01/14 05:03:24;;;;;;;10.57;6.63;;;1.60;99.90;;;;;;5076832;28;20028;-95
2022/01/14 05:05:53;;;;;;;11.73;6.30;;;1.60;99.90;;;;;;5075929;28;20020;-93
2022/01/14 05:08:24;;;;;;;11.30;6.38;;;1.60;99.90;;;;;;5075871;28;20372;-93
2022/01/14 05:13:23;;;;;;;10.48;6.15;;;1.60;99.90;;;;;;5078418;28;20364;-96
2022/01/14 05:15:50;;;;;;;12.50;6.82;;;1.60;99.90;;;;;;5076378;28;20031;-94
2022/01/14 05:18:15;;;;;;;10.60;6.43;;;1.60;99.90;;;;;;5076951;28;20032;-93
2022/01/14 05:20:41;;;;;;;13.18;6.47;;;1.60;99.90;;;;;;5075719;28;20029;-93
2022/01/14 05:23:07;;;;;;;9.55;6.10;;;1.60;99.90;;;;;;5076968;28;20465;-93
2022/01/14 05:25:33;;;;;;;12.48;6.65;;;1.60;99.90;;;;;;5075502;28;20032;-92
2022/01/14 05:27:58;;;;;;;14.85;6.63;;;1.60;99.90;;;;;;5076062;28;20074;-93
2022/01/14 05:30:24;;;;;;;10.80;6.38;;;1.60;99.90;;;;;;5076609;28;20071;-95
2022/01/14 05:32:53;;;;;;;10.40;6.13;;;1.60;99.90;;;;;;5075692;28;20056;-93
2022/01/14 05:35:27;;;;;;;12.80;7.07;;;1.60;99.90;;;;;;5075779;28;20020;-95
2022/01/14 05:37:54;;;;;;;13.57;7.45;;;1.60;99.90;;;;;;5075648;28;20675;-93
2022/01/14 05:40:20;;;;;;;14.07;7.40;;;1.60;99.90;;;;;;5075401;28;20570;-92
2022/01/14 05:42:47;;;;;;;12.70;7.13;;;1.60;99.90;;;;;;5075803;28;20432;-93
2022/01/14 05:45:14;;;;;;;12.27;6.93;;;1.60;99.90;;;;;;5075600;28;20409;-93
2022/01/14 05:47:40;;;;;;;11.30;6.38;;;1.60;99.90;;;;;;5075535;28;20028;-92
2022/01/14 05:50:15;;;;;;;9.55;6.35;;;1.60;99.90;;;;;;5075545;28;20027;-94
2022/01/14 05:52:41;;;;;;;14.85;7.15;;;1.60;99.90;;;;;;5075257;28;20024;-93
2022/01/14 05:55:09;;;;;;;10.85;6.75;;;1.60;99.90;;;;;;5074990;28;20017;-93
2022/01/14 05:57:37;;;;;;;10.88;6.90;;;1.70;99.90;;;;;;5075234;28;20455;-93
2022/01/14 15:48:16;;;;;;;8.50;4.75;;;3.10;99.90;;;;;;5131733;27;20548;-96
2022/01/14 15:50:44;;;;;;;7.47;4.60;;;3.10;99.90;;;;;;5111997;28;20019;-95
2022/01/14 15:53:11;;;;;;;7.82;4.22;;;3.10;99.90;;;;;;5112052;28;20028;-91
2022/01/14 15:55:36;;;;;;;5.15;3.90;;;3.10;99.90;;;;;;5111450;28;20079;-92
2022/01/14 15:58:03;;;;;;;4.13;3.60;;;3.20;99.90;;;;;;5111497;28;20441;-93
2022/01/14 16:00:29;;;;;;;5.38;4.15;;;3.20;99.90;;;;;;5111839;28;20492;-90
2022/01/14 16:03:00;;;;;;;5.93;4.15;;;3.20;99.90;;;;;;5111960;28;20024;-95
2022/01/14 16:05:27;;;;;;;9.90;4.43;;;3.30;99.90;;;;;;5112659;28;20024;-96
2022/01/14 16:07:54;;;;;;;8.98;5.22;;;3.30;99.90;;;;;;5114232;28;20032;-92
2022/01/14 16:10:21;;;;;;;9.55;6.25;;;3.40;99.90;;;;;;5107977;28;20394;-91
2022/01/14 16:12:51;;;;;;;8.93;5.45;;;3.40;99.90;;;;;;5100629;28;20031;-96
2022/01/14 16:15:23;;;;;;;5.63;4.47;;;3.40;99.90;;;;;;5098677;28;20038;-95
2022/01/14 16:17:49;;;;;;;6.25;4.10;;;3.40;99.90;;;;;;5095714;28;20028;-93
2022/01/14 16:20:18;;;;;;;5.63;4.22;;;3.50;99.90;;;;;;5114363;28;20008;-94
2022/01/14 16:22:47;;;;;;;5.75;4.30;;;3.50;99.90;;;;;;5114838;28;20049;-96
2022/01/14 16:25:15;;;;;;;3.42;2.88;;;3.40;99.90;;;;;;5117008;28;20024;-96
2022/01/14 16:27:42;;;;;;;8.60;3.40;;;3.50;99.90;;;;;;5121224;28;20452;-94
2022/01/14 16:30:21;;;;;;;3.85;3.13;;;3.50;99.90;;;;;;5121712;28;20049;-96
2022/01/14 16:32:48;;;;;;;4.85;3.67;;;3.50;99.90;;;;;;5113149;28;20028;-91
2022/01/14 16:35:14;;;;;;;4.68;3.38;;;3.50;99.90;;;;;;5111461;28;20543;-95
2022/01/14 16:37:40;;;;;;;3.45;2.55;;;3.60;99.90;;;;;;5110553;28;20023;-93
2022/01/14 16:40:09;;;;;;;4.05;2.78;;;3.60;99.90;;;;;;5110611;28;20024;-94
2022/01/14 16:42:36;;;;;;;7.15;2.80;;;3.60;99.90;;;;;;5111079;28;20028;-95
2022/01/14 16:45:05;;;;;;;4.82;3.35;;;3.60;99.90;;;;;;5111227;28;20060;-96
2022/01/14 16:47:31;;;;;;;6.00;2.78;;;3.60;99.90;;;;;;5115466;28;20067;-96
2022/01/14 16:50:23;;;;;;;5.43;3.40;;;3.60;99.90;;;;;;5126886;28;20031;-96
2022/01/14 16:52:49;;;;;;;4.20;2.55;;;3.50;99.90;;;;;;5111290;28;20024;-96
2022/01/14 16:55:16;;;;;;;3.22;2.42;;;3.50;99.90;;;;;;5110749;28;20024;-96
2022/01/14 16:57:43;;;;;;;4.38;2.70;;;3.50;99.90;;;;;;5109335;28;20031;-96
2022/01/14 17:00:14;;;;;;;26.80;14.88;;;3.40;99.90;;;;;;5099701;28;20028;-96
2022/01/14 17:02:41;;;;;;;9.85;5.50;;;3.50;99.90;;;;;;5099819;28;20024;-96
2022/01/14 17:05:08;;;;;;;5.82;4.13;;;3.40;99.90;;;;;;5097936;28;20075;-93
2022/01/14 17:07:33;;;;;;;4.57;3.38;;;3.40;99.90;;;;;;5099803;28;20020;-90
2022/01/14 17:09:59;;;;;;;3.05;2.70;;;3.30;99.90;;;;;;5097367;28;20047;-96
2022/01/14 17:12:29;;;;;;;5.85;3.83;;;3.40;99.90;;;;;;5096301;28;20422;-90
2022/01/14 17:14:55;;;;;;;5.13;3.88;;;3.40;99.90;;;;;;5096092;28;20035;-92
2022/01/14 17:17:21;;;;;;;5.65;3.25;;;3.40;99.90;;;;;;5087483;28;20039;-93
2022/01/14 17:19:47;;;;;;;3.85;2.38;;;3.40;99.90;;;;;;5076134;28;20025;-93
2022/01/14 17:22:13;;;;;;;3.30;2.60;;;3.40;99.90;;;;;;5075819;28;20115;-93
2022/01/14 17:24:39;;;;;;;7.30;3.75;;;3.40;99.90;;;;;;5077006;28;20036;-95
2022/01/14 17:27:07;;;;;;;6.70;4.22;;;3.40;99.90;;;;;;5076533;28;20032;-94
2022/01/14 17:29:33;;;;;;;4.72;2.90;;;3.30;99.90;;;;;;5075801;28;20024;-94
2022/01/14 17:31:59;;;;;;;7.72;4.05;;;3.30;99.90;;;;;;5075637;28;20025;-94
2022/01/14 17:34:28;;;;;;;6.70;3.88;;;3.40;99.90;;;;;;5368020;23;20551;-96
2022/01/14 17:36:57;;;;;;;6.65;3.85;;;3.40;99.90;;;;;;5037442;28;20037;-96
2022/01/14 17:39:23;;;;;;;5.35;3.50;;;3.40;99.90;;;;;;5041905;28;20025;-96
2022/01/14 17:41:50;;;;;;;4.65;3.15;;;3.40;99.90;;;;;;5038130;28;20022;-96
2022/01/14 17:44:21;;;;;;;6.38;3.13;;;3.40;99.90;;;;;;5038654;28;20032;-94
2022/01/14 17:47:02;;;;;;;8.95;4.05;;;3.30;99.90;;;;;;5550176;23;20017;-96
2022/01/14 17:52:24;;;;;;;7.20;3.78;;;2.80;99.90;;;;;;5975469;23;20044;-96
2022/01/14 17:57:49;;;;;;;7.10;3.97;;;2.50;99.90;;;;;;5941359;23;20036;-96
2022/01/14 18:00:24;;;;;;;6.97;3.03;;;2.40;99.90;;;;;;5037185;23;20085;-96
2022/01/14 18:02:51;;;;;;;9.18;4.43;;;2.20;99.90;;;;;;4978075;28;20019;-93
2022/01/14 18:05:22;;;;;;;6.68;2.88;;;2.10;99.90;;;;;;4963603;28;20031;-96
2022/01/14 18:07:50;;;;;;;8.68;2.63;;;2.00;99.90;;;;;;4987887;28;20045;-95
2022/01/14 18:10:17;;;;;;;9.38;1.67;;;1.80;99.90;;;;;;4961267;28;20029;-93
2022/01/14 18:14:17;;;;;;;6.00;3.10;;;1.20;99.90;;;;;;5114080;27;20374;-94
2022/01/14 18:16:44;;;;;;;7.30;3.90;;;0.90;99.90;;;;;;5111928;28;20031;-93
2022/01/14 18:19:10;;;;;;;3.88;2.63;;;0.70;99.90;;;;;;5095714;28;20052;-92
2022/01/14 18:21:36;;;;;;;4.25;2.80;;;0.60;99.90;;;;;;5091095;28;20020;-93
2022/01/14 18:24:03;;;;;;;3.70;2.58;;;0.60;99.90;;;;;;5091675;28;20027;-92
2022/01/14 18:26:30;;;;;;;8.45;4.88;;;0.60;99.90;;;;;;5090836;28;20031;-92
2022/01/14 18:28:57;;;;;;;3.70;2.03;;;0.60;99.90;;;;;;5090936;28;20024;-92
2022/01/14 18:31:24;;;;;;;5.38;2.80;;;0.50;99.90;;;;;;5090860;28;20020;-92
2022/01/14 18:33:51;;;;;;;4.45;2.50;;;0.50;99.90;;;;;;5108464;28;20107;-91
2022/01/14 18:36:18;;;;;;;4.18;2.53;;;0.50;99.90;;;;;;5111200;28;20032;-92
2022/01/14 18:38:46;;;;;;;5.68;3.58;;;0.50;99.90;;;;;;5110762;28;20355;-93
2022/01/14 18:41:12;;;;;;;8.95;4.85;;;0.40;99.90;;;;;;5110847;28;20527;-92
2022/01/14 18:43:40;;;;;;;6.85;3.75;;;0.40;99.90;;;;;;5111882;28;20024;-95
2022/01/14 18:46:07;;;;;;;11.05;3.97;;;0.40;99.90;;;;;;5111046;28;20024;-93
2022/01/14 18:48:35;;;;;;;6.30;4.40;;;0.40;99.90;;;;;;5110628;28;20024;-95
2022/01/14 18:51:03;;;;;;;4.97;3.75;;;0.40;99.90;;;;;;5111282;28;20032;-95
2022/01/14 18:53:29;;;;;;;4.13;2.95;;;0.30;99.90;;;;;;5110471;28;20033;-96
2022/01/14 18:55:56;;;;;;;4.90;2.80;;;0.30;99.90;;;;;;5110772;28;20019;-94
2022/01/14 18:58:22;;;;;;;5.32;2.88;;;0.30;99.90;;;;;;5112103;28;20401;-95
2022/01/14 19:00:50;;;;;;;5.95;3.05;;;0.40;99.90;;;;;;5110598;28;20023;-95
2022/01/14 19:03:25;;;;;;;7.80;3.33;;;0.30;99.90;;;;;;5110698;28;20034;-95
2022/01/14 19:05:51;;;;;;;3.15;2.05;;;0.40;99.90;;;;;;5110811;28;20107;-95
2022/01/14 19:08:16;;;;;;;6.38;2.95;;;0.50;99.90;;;;;;5110746;28;20081;-95
2022/01/14 19:10:44;;;;;;;6.90;3.78;;;0.40;99.90;;;;;;5112928;28;20043;-95
2022/01/14 19:13:10;;;;;;;14.65;5.70;;;0.50;99.90;;;;;;5110113;28;20048;-88
2022/01/14 19:15:36;;;;;;;82.40;34.72;;;0.50;99.90;;;;;;5110079;28;20016;-90
2022/01/14 19:18:02;;;;;;;21.67;10.63;;;0.50;99.90;;;;;;5110865;28;20462;-94
2022/01/14 19:20:28;;;;;;;39.90;11.45;;;0.40;99.90;;;;;;5110312;28;20497;-96
2022/01/14 19:22:55;;;;;;;15.95;6.90;;;0.50;99.90;;;;;;5110033;28;20042;-96
2022/01/14 19:25:22;;;;;;;55.47;14.98;;;0.50;99.90;;;;;;5096965;28;20024;-96
2022/01/14 19:27:48;;;;;;;329.33;87.30;;;0.50;99.90;;;;;;5096621;28;20028;-95
2022/01/14 19:30:15;;;;;;;66.20;16.52;;;0.40;99.90;;;;;;5100862;28;20024;-95
2022/01/14 19:32:41;;;;;;;340.40;89.65;;;0.40;99.90;;;;;;5096332;28;20115;-94
2022/01/14 19:35:07;;;;;;;156.93;37.90;;;0.40;99.90;;;;;;5096438;28;20020;-93
2022/01/14 19:37:49;;;;;;;48.25;13.18;;;0.40;99.90;;;;;;5096459;28;20028;-94
2022/01/14 19:40:15;;;;;;;39.92;10.98;;;0.40;99.90;;;;;;5096890;28;20364;-95
2022/01/14 19:42:42;;;;;;;37.00;10.30;;;0.40;99.90;;;;;;5097294;28;20024;-95
2022/01/14 19:45:11;;;;;;;45.45;12.98;;;0.40;99.90;;;;;;5101217;28;20029;-95
2022/01/14 19:47:38;;;;;;;55.30;15.68;;;0.50;99.90;;;;;;5096419;28;20043;-94
2022/01/14 19:50:10;;;;;;;31.48;11.05;;;0.50;99.90;;;;;;5096974;28;20024;-96
2022/01/14 19:52:36;;;;;;;32.50;11.23;;;0.40;99.90;;;;;;5101523;28;20023;-96
2022/01/14 19:55:03;;;;;;;14.93;5.78;;;0.40;99.90;;;;;;5096792;28;20028;-94
2022/01/14 19:57:29;;;;;;;3.30;2.33;;;0.40;99.90;;;;;;5098640;28;20060;-94
2022/01/14 19:59:55;;;;;;;2.38;0.93;;;0.40;99.90;;;;;;5097720;28;20081;-92
2022/01/14 20:02:20;;;;;;;3.75;1.60;;;0.40;99.90;;;;;;5096009;28;20020;-94
2022/01/14 20:04:47;;;;;;;4.72;1.77;;;0.40;99.90;;;;;;5096053;28;20103;-96
2022/01/14 20:07:13;;;;;;;12.50;4.90;;;0.40;99.90;;;;;;5095477;28;20028;-90
2022/01/14 20:09:42;;;;;;;59.75;15.70;;;0.40;99.90;;;;;;5096580;28;20423;-90
2022/01/14 20:12:08;;;;;;;335.10;87.18;;;0.40;99.90;;;;;;5095413;28;20513;-89
2022/01/14 20:14:33;;;;;;;117.07;24.83;;;0.40;99.90;;;;;;5095485;28;20016;-89
2022/01/14 20:17:02;;;;;;;332.83;67.95;;;0.40;99.90;;;;;;5095306;28;20470;-91
2022/01/14 20:19:34;;;;;;;148.25;34.28;;;0.30;99.90;;;;;;5096062;28;20024;-94
2022/01/14 20:22:00;;;;;;;60.38;15.45;;;0.40;99.90;;;;;;5098165;28;20056;-89
2022/01/14 20:24:26;;;;;;;41.05;10.20;;;0.40;99.90;;;;;;5098851;28;20032;-91
2022/01/14 20:26:59;;;;;;;253.90;68.00;;;0.40;99.90;;;;;;5097395;28;20016;-96
2022/01/14 20:29:25;;;;;;;148.20;32.33;;;0.40;99.90;;;;;;5098044;28;20021;-91
2022/01/14 20:31:51;;;;;;;151.13;36.97;;;0.40;99.90;;;;;;5100435;28;20041;-90
2022/01/14 20:34:18;;;;;;;18.85;6.03;;;0.30;99.90;;;;;;5098846;28;20043;-92
2022/01/14 20:36:44;;;;;;;11.27;3.45;;;0.30;99.90;;;;;;5094170;28;20478;-95
2022/01/14 20:39:10;;;;;;;703.10;215.90;;;0.20;99.90;;;;;;5095291;28;20031;-85
2022/01/14 20:41:43;;;;;;;52.50;15.38;;;0.30;99.90;;;;;;5094677;28;20103;-89
2022/01/14 20:44:09;;;;;;;281.50;80.20;;;0.30;99.90;;;;;;5094868;28;20059;-89
2022/01/14 20:46:35;;;;;;;68.35;18.13;;;0.30;99.90;;;;;;5094912;28;20020;-95
2022/01/14 20:49:01;;;;;;;19.55;5.88;;;0.30;99.90;;;;;;5095341;28;20111;-93
2022/01/14 20:51:30;;;;;;;14.07;5.93;;;0.40;99.90;;;;;;5095088;28;20055;-90
2022/01/14 20:54:00;;;;;;;40.17;12.18;;;0.40;99.90;;;;;;5095406;28;20073;-90
2022/01/14 20:56:27;;;;;;;295.08;100.55;;;0.40;99.90;;;;;;5094561;28;20020;-91
2022/01/14 20:58:53;;;;;;;95.53;40.15;;;0.40;99.90;;;;;;5094501;28;20024;-85
2022/01/14 21:01:20;;;;;;;43.13;21.83;;;0.40;99.90;;;;;;5094384;28;20065;-88
2022/01/14 21:03:49;;;;;;;7.47;3.38;;;0.40;99.90;;;;;;5094106;28;20035;-93
2022/01/14 21:06:18;;;;;;;8.00;4.70;;;0.50;99.90;;;;;;5094178;28;20032;-87
2022/01/14 21:08:47;;;;;;;12.48;8.95;;;0.50;99.90;;;;;;5094153;28;20080;-91
2022/01/14 21:11:13;;;;;;;6.10;3.13;;;0.50;99.90;;;;;;5094171;28;20084;-93
2022/01/14 21:13:39;;;;;;;11.55;3.97;;;0.50;99.90;;;;;;5093903;28;20434;-90
2022/01/14 21:16:05;;;;;;;716.72;211.18;;;0.50;99.90;;;;;;5093976;28;20154;-94
2022/01/14 21:18:31;;;;;;;42.15;11.35;;;0.50;99.90;;;;;;5094513;28;20068;-91
2022/01/14 21:20:57;;;;;;;15.25;4.22;;;0.50;99.90;;;;;;5094292;28;20106;-92
2022/01/14 21:23:29;;;;;;;102.90;28.00;;;0.50;99.90;;;;;;5094531;28;20028;-92
2022/01/14 21:25:56;;;;;;;76.45;20.17;;;0.50;99.90;;;;;;5093735;28;20077;-89
2022/01/14 21:28:23;;;;;;;6.97;2.60;;;0.50;99.90;;;;;;5094005;28;20023;-93
2022/01/14 21:30:49;;;;;;;58.70;15.73;;;0.50;99.90;;;;;;5093680;28;20484;-94
2022/01/14 21:33:15;;;;;;;76.40;20.20;;;0.40;99.90;;;;;;5093882;28;20028;-87
2022/01/14 21:35:41;;;;;;;15.40;6.82;;;0.40;99.90;;;;;;5093918;28;20535;-93
2022/01/14 21:38:08;;;;;;;58.35;16.13;;;0.50;99.90;;;;;;5094118;28;20031;-95
2022/01/14 21:40:35;;;;;;;132.07;39.53;;;0.40;99.90;;;;;;5093888;28;20021;-85
2022/01/14 21:43:02;;;;;;;59.40;17.95;;;0.40;99.90;;;;;;5093543;28;20085;-93
2022/01/14 21:45:29;;;;;;;23.58;6.75;;;0.50;99.90;;;;;;5093266;28;20036;-93
2022/01/14 21:47:59;;;;;;;28.95;10.68;;;0.50;99.90;;;;;;5094005;28;20024;-86
2022/01/14 21:50:26;;;;;;;18.30;7.40;;;0.50;99.90;;;;;;5093542;28;20032;-87
2022/01/14 21:52:52;;;;;;;10.25;4.78;;;0.50;99.90;;;;;;5094070;28;20096;-87
2022/01/14 21:55:18;;;;;;;27.23;12.07;;;0.50;99.90;;;;;;5093396;28;20020;-87
2022/01/14 21:57:45;;;;;;;4.45;1.63;;;0.50;99.90;;;;;;5093722;28;20485;-86
2022/01/14 22:00:12;;;;;;;13.65;8.50;;;0.50;99.90;;;;;;5093342;28;20028;-91
2022/01/14 22:02:38;;;;;;;6.68;4.30;;;0.40;99.90;;;;;;5093571;28;20032;-88
2022/01/14 22:05:05;;;;;;;14.48;10.35;;;0.40;99.90;;;;;;5093363;28;20024;-92
2022/01/14 22:07:30;;;;;;;6.05;3.30;;;0.40;99.90;;;;;;5094258;28;20024;-95
2022/01/14 22:09:58;;;;;;;6.00;3.22;;;0.40;99.90;;;;;;5093317;28;20598;-90
2022/01/14 22:12:26;;;;;;;9.20;4.57;;;0.40;99.90;;;;;;5093150;28;20402;-94
2022/01/14 22:15:03;;;;;;;7.57;3.65;;;0.40;99.90;;;;;;5093743;28;20058;-96
2022/01/14 22:17:29;;;;;;;5.97;2.13;;;0.40;99.90;;;;;;5093370;28;20474;-91
2022/01/14 22:19:54;;;;;;;3.85;1.70;;;0.40;99.90;;;;;;5093924;28;20077;-91
2022/01/14 22:22:20;;;;;;;18.08;7.70;;;0.50;99.90;;;;;;5093378;28;20385;-90
2022/01/14 22:24:45;;;;;;;5.28;2.70;;;0.60;99.90;;;;;;5093695;28;20028;-89
2022/01/14 22:27:11;;;;;;;10.57;7.97;;;0.70;99.90;;;;;;5093309;28;20111;-94
2022/01/14 22:29:37;;;;;;;5.82;2.90;;;0.70;99.90;;;;;;5093694;28;20102;-94
2022/01/14 22:32:03;;;;;;;3.88;2.75;;;0.70;99.90;;;;;;5093356;28;20119;-93
2022/01/14 22:34:29;;;;;;;42.47;25.73;;;0.70;99.90;;;;;;5093156;28;20493;-94
2022/01/14 22:36:55;;;;;;;3.88;2.30;;;0.70;99.90;;;;;;5093567;28;20016;-92
2022/01/14 22:39:24;;;;;;;4.68;3.38;;;0.80;99.90;;;;;;5104556;28;20032;-96
2022/01/14 22:41:49;;;;;;;5.88;2.28;;;0.80;99.90;;;;;;5098319;28;20028;-96
2022/01/14 22:44:15;;;;;;;2.92;2.05;;;0.80;99.90;;;;;;5094217;28;20026;-91
2022/01/14 22:46:42;;;;;;;5.80;2.20;;;0.90;99.90;;;;;;5093078;28;20028;-93
2022/01/14 22:49:08;;;;;;;3.72;2.40;;;0.90;99.90;;;;;;5093084;28;20044;-93
2022/01/14 22:51:34;;;;;;;3.85;2.50;;;0.80;99.90;;;;;;5092975;28;20031;-88
2022/01/14 22:54:00;;;;;;;14.07;9.32;;;0.80;99.90;;;;;;5092997;28;20020;-91
2022/01/14 22:56:25;;;;;;;7.38;3.10;;;0.90;99.90;;;;;;5092903;28;20021;-91
2022/01/14 22:58:51;;;;;;;6.57;2.38;;;0.90;99.90;;;;;;5094073;28;20016;-87
2022/01/14 23:01:17;;;;;;;2.67;2.05;;;1.00;99.90;;;;;;5097022;28;20123;-92
2022/01/14 23:03:44;;;;;;;4.90;2.22;;;1.00;99.90;;;;;;5096705;28;20024;-90
2022/01/14 23:06:11;;;;;;;10.30;9.20;;;1.00;99.90;;;;;;5096537;28;20028;-88
2022/01/14 23:08:36;;;;;;;5.07;2.03;;;1.00;99.90;;;;;;5097481;28;20035;-88
2022/01/14 23:11:03;;;;;;;7.35;1.65;;;1.00;99.90;;;;;;5096541;28;20031;-92
2022/01/14 23:13:28;;;;;;;3.92;2.58;;;1.00;99.90;;;;;;5097592;28;20478;-88